sensor_id;sensor_type;location;lat;lon;timestamp;pressure;altitude;pressure_sealevel;temperature;humidity
1401;BME280;46518;48.842;8.926;2023-03-01T00:00:05;97870.03;;;0.19;65.36
1401;BME280;46518;48.842;8.926;2023-03-01T00:02:37;97877.00;;;0.10;66.30
1401;BME280;46518;48.842;8.926;2023-03-01T00:05:07;97880.72;;;0.08;66.16
1401;BME280;46518;48.842;8.926;2023-03-01T00:07:35;97881.66;;;0.07;66.00
1401;BME280;46518;48.842;8.926;2023-03-01T00:10:04;97884.25;;;0.07;66.32
1401;BME280;46518;48.842;8.926;2023-03-01T00:15:00;97876.16;;;0.02;66.54
1401;BME280;46518;48.842;8.926;2023-03-01T00:17:28;97879.41;;;0.04;66.23
1401;BME280;46518;48.842;8.926;2023-03-01T00:19:56;97871.63;;;-0.05;66.43
1401;BME280;46518;48.842;8.926;2023-03-01T00:22:27;97870.38;;;0.08;66.60
1401;BME280;46518;48.842;8.926;2023-03-01T00:24:56;97881.00;;;0.05;66.22
1401;BME280;46518;48.842;8.926;2023-03-01T00:27:24;97885.06;;;-0.01;65.98
1401;BME280;46518;48.842;8.926;2023-03-01T00:29:52;97881.16;;;-0.13;66.39
1401;BME280;46518;48.842;8.926;2023-03-01T00:32:21;97875.94;;;-0.30;66.16
1401;BME280;46518;48.842;8.926;2023-03-01T00:34:49;97873.94;;;-0.44;67.52
1401;BME280;46518;48.842;8.926;2023-03-01T00:37:23;97880.59;;;-0.33;67.00
1401;BME280;46518;48.842;8.926;2023-03-01T00:39:53;97882.25;;;-0.32;66.91
1401;BME280;46518;48.842;8.926;2023-03-01T00:42:21;97888.53;;;-0.35;67.12
1401;BME280;46518;48.842;8.926;2023-03-01T00:44:50;97882.06;;;-0.31;67.53
1401;BME280;46518;48.842;8.926;2023-03-01T00:47:18;97882.59;;;-0.19;67.50
1401;BME280;46518;48.842;8.926;2023-03-01T00:49:46;97881.28;;;-0.23;68.01
1401;BME280;46518;48.842;8.926;2023-03-01T00:52:15;97881.59;;;-0.26;67.40
1401;BME280;46518;48.842;8.926;2023-03-01T00:54:43;97878.53;;;-0.30;67.79
1401;BME280;46518;48.842;8.926;2023-03-01T00:57:13;97881.59;;;-0.26;68.13
1401;BME280;46518;48.842;8.926;2023-03-01T00:59:41;97876.44;;;-0.18;67.71
1401;BME280;46518;48.842;8.926;2023-03-01T01:02:09;97879.00;;;-0.26;68.00
1401;BME280;46518;48.842;8.926;2023-03-01T01:04:37;97877.56;;;-0.20;68.45
1401;BME280;46518;48.842;8.926;2023-03-01T01:07:05;97878.03;;;-0.25;68.52
1401;BME280;46518;48.842;8.926;2023-03-01T01:09:33;97878.69;;;-0.23;68.87
1401;BME280;46518;48.842;8.926;2023-03-01T01:12:02;97867.72;;;-0.17;68.92
1401;BME280;46518;48.842;8.926;2023-03-01T01:14:32;97865.00;;;-0.07;68.59
1401;BME280;46518;48.842;8.926;2023-03-01T01:17:00;97866.47;;;-0.05;68.36
1401;BME280;46518;48.842;8.926;2023-03-01T01:19:28;97861.91;;;-0.03;68.56
1401;BME280;46518;48.842;8.926;2023-03-01T01:21:57;97868.72;;;-0.02;68.20
1401;BME280;46518;48.842;8.926;2023-03-01T01:24:25;97866.63;;;0.02;68.27
1401;BME280;46518;48.842;8.926;2023-03-01T01:26:53;97860.50;;;0.03;68.09
1401;BME280;46518;48.842;8.926;2023-03-01T01:29:21;97859.69;;;0.03;67.44
1401;BME280;46518;48.842;8.926;2023-03-01T01:31:50;97856.75;;;-0.03;68.22
1401;BME280;46518;48.842;8.926;2023-03-01T01:34:20;97858.53;;;-0.03;67.62
1401;BME280;46518;48.842;8.926;2023-03-01T01:36:50;97847.50;;;-0.05;67.47
1401;BME280;46518;48.842;8.926;2023-03-01T01:39:20;97845.75;;;-0.05;67.79
1401;BME280;46518;48.842;8.926;2023-03-01T01:41:49;97842.19;;;-0.20;67.45
1401;BME280;46518;48.842;8.926;2023-03-01T01:44:19;97839.75;;;-0.22;68.03
1401;BME280;46518;48.842;8.926;2023-03-01T01:46:52;97845.25;;;-0.16;67.71
1401;BME280;46518;48.842;8.926;2023-03-01T01:49:25;97840.53;;;-0.21;68.07
1401;BME280;46518;48.842;8.926;2023-03-01T01:52:00;97836.97;;;-0.28;67.79
1401;BME280;46518;48.842;8.926;2023-03-01T01:54:34;97837.44;;;-0.41;68.56
1401;BME280;46518;48.842;8.926;2023-03-01T01:57:08;97837.16;;;-0.22;67.97
1401;BME280;46518;48.842;8.926;2023-03-01T01:59:39;97834.38;;;-0.36;68.63
1401;BME280;46518;48.842;8.926;2023-03-01T02:02:12;97830.34;;;-0.31;68.45
1401;BME280;46518;48.842;8.926;2023-03-01T02:04:41;97830.19;;;-0.29;68.50
1401;BME280;46518;48.842;8.926;2023-03-01T02:07:14;97828.22;;;-0.35;67.85
1401;BME280;46518;48.842;8.926;2023-03-01T02:09:46;97826.94;;;-0.39;68.51
1401;BME280;46518;48.842;8.926;2023-03-01T02:12:17;97823.88;;;-0.35;68.91
1401;BME280;46518;48.842;8.926;2023-03-01T02:14:45;97823.38;;;-0.38;68.85
1401;BME280;46518;48.842;8.926;2023-03-01T02:17:18;97824.69;;;-0.34;69.02
1401;BME280;46518;48.842;8.926;2023-03-01T02:20:02;97816.59;;;-0.31;69.54
1401;BME280;46518;48.842;8.926;2023-03-01T02:22:35;97811.44;;;-0.23;68.90
1401;BME280;46518;48.842;8.926;2023-03-01T02:25:12;97810.78;;;-0.33;68.55
1401;BME280;46518;48.842;8.926;2023-03-01T02:27:50;97805.44;;;-0.40;68.70
1401;BME280;46518;48.842;8.926;2023-03-01T02:30:22;97795.25;;;-0.41;68.78
1401;BME280;46518;48.842;8.926;2023-03-01T02:32:52;97791.69;;;-0.40;68.54
1401;BME280;46518;48.842;8.926;2023-03-01T02:35:22;97791.38;;;-0.37;68.30
1401;BME280;46518;48.842;8.926;2023-03-01T02:37:50;97789.91;;;-0.48;68.56
1401;BME280;46518;48.842;8.926;2023-03-01T02:40:18;97785.53;;;-0.48;69.13
1401;BME280;46518;48.842;8.926;2023-03-01T02:42:51;97785.06;;;-0.43;68.47
1401;BME280;46518;48.842;8.926;2023-03-01T02:45:23;97781.19;;;-0.39;69.04
1401;BME280;46518;48.842;8.926;2023-03-01T02:47:53;97779.75;;;-0.33;68.59
1401;BME280;46518;48.842;8.926;2023-03-01T02:50:33;97782.00;;;-0.30;68.68
1401;BME280;46518;48.842;8.926;2023-03-01T02:53:11;97771.66;;;-0.38;68.33
1401;BME280;46518;48.842;8.926;2023-03-01T02:55:41;97773.91;;;-0.44;68.82
1401;BME280;46518;48.842;8.926;2023-03-01T02:58:09;97764.22;;;-0.41;68.87
1401;BME280;46518;48.842;8.926;2023-03-01T03:00:41;97770.00;;;-0.56;69.51
1401;BME280;46518;48.842;8.926;2023-03-01T03:03:15;97767.59;;;-0.41;69.42
1401;BME280;46518;48.842;8.926;2023-03-01T03:05:44;97765.81;;;-0.40;69.69
1401;BME280;46518;48.842;8.926;2023-03-01T03:08:12;97769.06;;;-0.38;69.57
1401;BME280;46518;48.842;8.926;2023-03-01T03:10:42;97771.19;;;-0.42;69.00
1401;BME280;46518;48.842;8.926;2023-03-01T03:13:13;97759.84;;;-0.57;69.10
1401;BME280;46518;48.842;8.926;2023-03-01T03:15:43;97753.34;;;-0.61;69.74
1401;BME280;46518;48.842;8.926;2023-03-01T03:18:13;97757.72;;;-0.62;70.19
1401;BME280;46518;48.842;8.926;2023-03-01T03:20:43;97752.56;;;-0.54;70.11
1401;BME280;46518;48.842;8.926;2023-03-01T03:23:11;97755.94;;;-0.45;70.90
1401;BME280;46518;48.842;8.926;2023-03-01T03:25:39;97755.19;;;-0.37;70.86
1401;BME280;46518;48.842;8.926;2023-03-01T03:28:07;97755.00;;;-0.28;70.64
1401;BME280;46518;48.842;8.926;2023-03-01T03:30:39;97749.19;;;-0.13;70.30
1401;BME280;46518;48.842;8.926;2023-03-01T03:33:09;97745.16;;;-0.16;70.44
1401;BME280;46518;48.842;8.926;2023-03-01T03:35:41;97749.69;;;-0.02;70.06
1401;BME280;46518;48.842;8.926;2023-03-01T03:38:14;97743.84;;;0.05;70.09
1401;BME280;46518;48.842;8.926;2023-03-01T03:40:48;97750.34;;;0.09;70.04
1401;BME280;46518;48.842;8.926;2023-03-01T03:43:18;97747.91;;;0.07;69.57
1401;BME280;46518;48.842;8.926;2023-03-01T03:45:48;97741.28;;;0.21;69.96
1401;BME280;46518;48.842;8.926;2023-03-01T03:48:18;97738.03;;;0.19;70.00
1401;BME280;46518;48.842;8.926;2023-03-01T03:50:48;97736.25;;;0.28;69.76
1401;BME280;46518;48.842;8.926;2023-03-01T03:53:17;97736.41;;;0.26;69.62
1401;BME280;46518;48.842;8.926;2023-03-01T03:55:47;97737.38;;;0.25;69.65
1401;BME280;46518;48.842;8.926;2023-03-01T03:58:17;97728.00;;;0.24;69.53
1401;BME280;46518;48.842;8.926;2023-03-01T04:00:48;97721.84;;;0.25;69.70
1401;BME280;46518;48.842;8.926;2023-03-01T04:03:18;97726.50;;;0.30;69.26
1401;BME280;46518;48.842;8.926;2023-03-01T04:05:46;97717.47;;;0.26;69.75
1401;BME280;46518;48.842;8.926;2023-03-01T04:08:17;97715.38;;;0.21;69.54
1401;BME280;46518;48.842;8.926;2023-03-01T04:10:48;97711.81;;;0.30;69.88
1401;BME280;46518;48.842;8.926;2023-03-01T04:13:18;97704.97;;;0.37;69.57
1401;BME280;46518;48.842;8.926;2023-03-01T04:15:48;97709.19;;;0.38;69.50
1401;BME280;46518;48.842;8.926;2023-03-01T04:18:20;97710.00;;;0.39;69.41
1401;BME280;46518;48.842;8.926;2023-03-01T04:20:49;97702.09;;;0.40;69.02
1401;BME280;46518;48.842;8.926;2023-03-01T04:23:20;97710.50;;;0.42;69.10
1401;BME280;46518;48.842;8.926;2023-03-01T04:25:50;97707.25;;;0.40;68.55
1401;BME280;46518;48.842;8.926;2023-03-01T04:28:25;97708.22;;;0.39;69.20
1401;BME280;46518;48.842;8.926;2023-03-01T04:30:56;97710.16;;;0.46;68.89
1401;BME280;46518;48.842;8.926;2023-03-01T04:33:26;97711.13;;;0.36;69.04
1401;BME280;46518;48.842;8.926;2023-03-01T04:35:54;97704.81;;;0.39;69.35
1401;BME280;46518;48.842;8.926;2023-03-01T04:38:22;97691.38;;;0.43;68.89
1401;BME280;46518;48.842;8.926;2023-03-01T04:40:52;97698.31;;;0.51;69.31
1401;BME280;46518;48.842;8.926;2023-03-01T04:43:20;97701.38;;;0.55;69.09
1401;BME280;46518;48.842;8.926;2023-03-01T04:45:48;97706.09;;;0.51;69.09
1401;BME280;46518;48.842;8.926;2023-03-01T04:48:16;97702.00;;;0.57;68.73
1401;BME280;46518;48.842;8.926;2023-03-01T04:50:45;97699.59;;;0.55;68.60
1401;BME280;46518;48.842;8.926;2023-03-01T04:53:13;97712.38;;;0.57;68.56
1401;BME280;46518;48.842;8.926;2023-03-01T04:55:41;97719.19;;;0.58;68.99
1401;BME280;46518;48.842;8.926;2023-03-01T04:58:09;97710.47;;;0.51;68.76
1401;BME280;46518;48.842;8.926;2023-03-01T05:00:38;97704.09;;;0.61;69.11
1401;BME280;46518;48.842;8.926;2023-03-01T05:03:06;97711.88;;;0.61;68.78
1401;BME280;46518;48.842;8.926;2023-03-01T05:05:36;97698.78;;;0.63;68.57
1401;BME280;46518;48.842;8.926;2023-03-01T05:08:07;97697.13;;;0.62;68.50
1401;BME280;46518;48.842;8.926;2023-03-01T05:10:36;97699.28;;;0.58;68.40
1401;BME280;46518;48.842;8.926;2023-03-01T05:13:05;97706.06;;;0.59;68.47
1401;BME280;46518;48.842;8.926;2023-03-01T05:15:33;97702.81;;;0.66;68.64
1401;BME280;46518;48.842;8.926;2023-03-01T05:18:03;97690.41;;;0.53;68.50
1401;BME280;46518;48.842;8.926;2023-03-01T05:20:34;97690.25;;;0.46;68.94
1401;BME280;46518;48.842;8.926;2023-03-01T05:23:03;97686.81;;;0.54;69.02
1401;BME280;46518;48.842;8.926;2023-03-01T05:25:35;97702.50;;;0.60;68.43
1401;BME280;46518;48.842;8.926;2023-03-01T05:28:11;97698.47;;;0.58;68.69
1401;BME280;46518;48.842;8.926;2023-03-01T05:30:39;97700.88;;;0.59;68.65
1401;BME280;46518;48.842;8.926;2023-03-01T05:33:08;97697.47;;;0.59;68.74
1401;BME280;46518;48.842;8.926;2023-03-01T05:35:40;97698.47;;;0.58;69.15
1401;BME280;46518;48.842;8.926;2023-03-01T05:38:10;97701.69;;;0.60;68.70
1401;BME280;46518;48.842;8.926;2023-03-01T05:40:42;97706.84;;;0.60;68.60
1401;BME280;46518;48.842;8.926;2023-03-01T05:43:11;97714.66;;;0.52;68.83
1401;BME280;46518;48.842;8.926;2023-03-01T05:45:41;97713.22;;;0.49;69.67
1401;BME280;46518;48.842;8.926;2023-03-01T05:48:16;97695.75;;;0.35;69.36
1401;BME280;46518;48.842;8.926;2023-03-01T05:50:48;97696.88;;;0.49;69.37
1401;BME280;46518;48.842;8.926;2023-03-01T05:53:18;97707.56;;;0.46;69.11
1401;BME280;46518;48.842;8.926;2023-03-01T05:55:49;97711.94;;;0.37;69.77
1401;BME280;46518;48.842;8.926;2023-03-01T05:58:19;97692.22;;;0.36;69.61
1401;BME280;46518;48.842;8.926;2023-03-01T06:00:48;97701.13;;;0.33;70.16
1401;BME280;46518;48.842;8.926;2023-03-01T06:03:20;97692.69;;;0.39;69.94
1401;BME280;46518;48.842;8.926;2023-03-01T06:05:48;97699.00;;;0.37;69.48
1401;BME280;46518;48.842;8.926;2023-03-01T06:08:16;97692.69;;;0.39;69.58
1401;BME280;46518;48.842;8.926;2023-03-01T06:10:46;97690.91;;;0.32;69.13
1401;BME280;46518;48.842;8.926;2023-03-01T06:13:17;97692.72;;;0.31;69.48
1401;BME280;46518;48.842;8.926;2023-03-01T06:15:45;97699.34;;;0.34;69.74
1401;BME280;46518;48.842;8.926;2023-03-01T06:18:13;97704.06;;;0.30;69.34
1401;BME280;46518;48.842;8.926;2023-03-01T06:20:41;97694.81;;;0.36;68.97
1401;BME280;46518;48.842;8.926;2023-03-01T06:23:09;97704.34;;;0.27;69.72
1401;BME280;46518;48.842;8.926;2023-03-01T06:25:37;97701.47;;;0.22;69.96
1401;BME280;46518;48.842;8.926;2023-03-01T06:28:06;97704.88;;;0.14;69.65
1401;BME280;46518;48.842;8.926;2023-03-01T06:30:35;97696.63;;;0.19;70.19
1401;BME280;46518;48.842;8.926;2023-03-01T06:33:03;97704.03;;;0.22;69.68
1401;BME280;46518;48.842;8.926;2023-03-01T06:35:32;97704.06;;;0.14;70.13
1401;BME280;46518;48.842;8.926;2023-03-01T06:38:01;97712.63;;;0.23;70.09
1401;BME280;46518;48.842;8.926;2023-03-01T06:40:30;97700.47;;;0.31;69.71
1401;BME280;46518;48.842;8.926;2023-03-01T06:42:59;97698.22;;;0.20;69.49
1401;BME280;46518;48.842;8.926;2023-03-01T06:45:27;97692.56;;;0.16;70.11
1401;BME280;46518;48.842;8.926;2023-03-01T06:48:03;97697.75;;;0.16;69.55
1401;BME280;46518;48.842;8.926;2023-03-01T06:50:31;97693.72;;;0.06;70.25
1401;BME280;46518;48.842;8.926;2023-03-01T06:53:00;97693.56;;;0.07;70.33
1401;BME280;46518;48.842;8.926;2023-03-01T06:55:28;97692.13;;;0.13;70.13
1401;BME280;46518;48.842;8.926;2023-03-01T06:57:57;97696.63;;;0.11;70.00
1401;BME280;46518;48.842;8.926;2023-03-01T07:00:26;97697.59;;;0.18;69.84
1401;BME280;46518;48.842;8.926;2023-03-01T07:02:58;97694.38;;;0.16;70.14
1401;BME280;46518;48.842;8.926;2023-03-01T07:05:28;97687.72;;;0.13;69.97
1401;BME280;46518;48.842;8.926;2023-03-01T07:07:56;97688.50;;;0.22;69.71
1401;BME280;46518;48.842;8.926;2023-03-01T07:10:24;97685.63;;;0.09;69.24
1401;BME280;46518;48.842;8.926;2023-03-01T07:12:54;97686.75;;;0.14;69.50
1401;BME280;46518;48.842;8.926;2023-03-01T07:15:22;97690.66;;;0.10;70.00
1401;BME280;46518;48.842;8.926;2023-03-01T07:17:51;97689.81;;;0.10;69.98
1401;BME280;46518;48.842;8.926;2023-03-01T07:20:19;97683.97;;;0.24;70.38
1401;BME280;46518;48.842;8.926;2023-03-01T07:22:53;97669.75;;;0.20;70.24
1401;BME280;46518;48.842;8.926;2023-03-01T07:25:21;97677.69;;;0.18;70.60
1401;BME280;46518;48.842;8.926;2023-03-01T07:27:53;97680.25;;;0.27;70.53
1401;BME280;46518;48.842;8.926;2023-03-01T07:30:22;97651.47;;;0.21;70.05
1401;BME280;46518;48.842;8.926;2023-03-01T07:32:53;97656.81;;;0.28;69.49
1401;BME280;46518;48.842;8.926;2023-03-01T07:35:21;97669.06;;;0.42;69.62
1401;BME280;46518;48.842;8.926;2023-03-01T07:37:51;97667.59;;;0.48;69.96
1401;BME280;46518;48.842;8.926;2023-03-01T07:40:24;97673.56;;;0.49;69.76
1401;BME280;46518;48.842;8.926;2023-03-01T07:42:55;97669.16;;;0.57;69.89
1401;BME280;46518;48.842;8.926;2023-03-01T07:45:26;97629.88;;;0.46;69.69
1401;BME280;46518;48.842;8.926;2023-03-01T07:48:09;97651.81;;;0.66;69.17
1401;BME280;46518;48.842;8.926;2023-03-01T07:50:38;97646.97;;;0.63;69.34
1401;BME280;46518;48.842;8.926;2023-03-01T07:53:06;97660.13;;;0.84;69.46
1401;BME280;46518;48.842;8.926;2023-03-01T07:55:35;97659.91;;;0.94;69.00
1401;BME280;46518;48.842;8.926;2023-03-01T07:58:03;97648.59;;;0.95;68.83
1401;BME280;46518;48.842;8.926;2023-03-01T08:00:32;97646.94;;;1.02;69.32
1401;BME280;46518;48.842;8.926;2023-03-01T08:03:00;97641.22;;;1.07;68.42
1401;BME280;46518;48.842;8.926;2023-03-01T08:05:28;97635.72;;;1.10;68.40
1401;BME280;46518;48.842;8.926;2023-03-01T08:07:56;97642.34;;;1.13;68.23
1401;BME280;46518;48.842;8.926;2023-03-01T08:10:25;97647.31;;;1.14;68.29
1401;BME280;46518;48.842;8.926;2023-03-01T08:12:57;97641.34;;;1.14;68.70
1401;BME280;46518;48.842;8.926;2023-03-01T08:15:25;97651.00;;;1.20;68.83
1401;BME280;46518;48.842;8.926;2023-03-01T08:17:58;97632.25;;;1.18;68.17
1401;BME280;46518;48.842;8.926;2023-03-01T08:20:30;97636.72;;;1.24;67.99
1401;BME280;46518;48.842;8.926;2023-03-01T08:26:22;97633.78;;;1.27;68.03
1401;BME280;46518;48.842;8.926;2023-03-01T08:28:56;97625.78;;;1.37;68.07
1401;BME280;46518;48.842;8.926;2023-03-01T08:31:27;97632.91;;;1.35;67.91
1401;BME280;46518;48.842;8.926;2023-03-01T08:33:59;97629.72;;;1.33;67.05
1401;BME280;46518;48.842;8.926;2023-03-01T08:36:55;97648.22;;;1.53;67.60
1401;BME280;46518;48.842;8.926;2023-03-01T08:39:46;97627.97;;;1.48;67.20
1401;BME280;46518;48.842;8.926;2023-03-01T08:42:14;97640.09;;;1.70;67.27
1401;BME280;46518;48.842;8.926;2023-03-01T08:48:33;97643.25;;;1.81;66.49
1401;BME280;46518;48.842;8.926;2023-03-01T08:51:09;97626.06;;;1.80;66.14
1401;BME280;46518;48.842;8.926;2023-03-01T08:53:37;97613.44;;;1.77;66.02
1401;BME280;46518;48.842;8.926;2023-03-01T08:56:06;97627.16;;;1.85;65.99
1401;BME280;46518;48.842;8.926;2023-03-01T08:58:35;97626.06;;;1.94;66.00
1401;BME280;46518;48.842;8.926;2023-03-01T09:01:07;97625.81;;;1.89;65.91
1401;BME280;46518;48.842;8.926;2023-03-01T09:03:37;97614.63;;;1.89;65.76
1401;BME280;46518;48.842;8.926;2023-03-01T09:06:07;97597.06;;;1.76;65.31
1401;BME280;46518;48.842;8.926;2023-03-01T09:08:37;97605.78;;;1.98;66.47
1401;BME280;46518;48.842;8.926;2023-03-01T09:11:07;97608.13;;;2.08;65.52
1401;BME280;46518;48.842;8.926;2023-03-01T09:13:36;97601.13;;;2.08;65.79
1401;BME280;46518;48.842;8.926;2023-03-01T09:16:19;97587.34;;;2.08;65.57
1401;BME280;46518;48.842;8.926;2023-03-01T09:18:51;97603.34;;;2.26;65.36
1401;BME280;46518;48.842;8.926;2023-03-01T09:21:22;97598.00;;;2.28;65.46
1401;BME280;46518;48.842;8.926;2023-03-01T09:24:06;97579.44;;;2.31;64.68
1401;BME280;46518;48.842;8.926;2023-03-01T09:26:35;97580.44;;;2.30;64.46
1401;BME280;46518;48.842;8.926;2023-03-01T09:29:04;97588.66;;;2.48;64.60
1401;BME280;46518;48.842;8.926;2023-03-01T09:31:32;97571.25;;;2.49;64.48
1401;BME280;46518;48.842;8.926;2023-03-01T09:34:02;97580.94;;;2.55;63.83
1401;BME280;46518;48.842;8.926;2023-03-01T09:36:31;97578.88;;;2.50;63.53
1401;BME280;46518;48.842;8.926;2023-03-01T09:38:59;97581.19;;;2.60;63.27
1401;BME280;46518;48.842;8.926;2023-03-01T09:41:38;97584.69;;;2.67;63.01
1401;BME280;46518;48.842;8.926;2023-03-01T09:44:15;97561.09;;;2.69;62.31
1401;BME280;46518;48.842;8.926;2023-03-01T09:46:46;97574.16;;;2.75;62.03
1401;BME280;46518;48.842;8.926;2023-03-01T09:49:18;97576.13;;;2.73;62.21
1401;BME280;46518;48.842;8.926;2023-03-01T09:51:55;97573.97;;;2.77;61.58
1401;BME280;46518;48.842;8.926;2023-03-01T09:54:24;97577.81;;;2.81;61.49
1401;BME280;46518;48.842;8.926;2023-03-01T09:57:00;97575.50;;;3.08;61.50
1401;BME280;46518;48.842;8.926;2023-03-01T09:59:38;97571.75;;;3.17;61.06
1401;BME280;46518;48.842;8.926;2023-03-01T10:02:23;97568.91;;;3.33;60.91
1401;BME280;46518;48.842;8.926;2023-03-01T10:04:55;97565.50;;;3.33;60.48
1401;BME280;46518;48.842;8.926;2023-03-01T10:07:30;97561.75;;;3.42;60.09
1401;BME280;46518;48.842;8.926;2023-03-01T10:10:00;97556.63;;;3.49;60.02
1401;BME280;46518;48.842;8.926;2023-03-01T10:12:35;97548.41;;;3.52;59.97
1401;BME280;46518;48.842;8.926;2023-03-01T10:15:07;97564.16;;;3.65;58.64
1401;BME280;46518;48.842;8.926;2023-03-01T10:17:41;97554.16;;;3.68;58.24
1401;BME280;46518;48.842;8.926;2023-03-01T10:20:19;97549.72;;;3.62;59.53
1401;BME280;46518;48.842;8.926;2023-03-01T10:22:51;97546.56;;;3.74;58.43
1401;BME280;46518;48.842;8.926;2023-03-01T10:25:31;97533.38;;;3.75;58.17
1401;BME280;46518;48.842;8.926;2023-03-01T10:28:10;97533.66;;;3.87;57.71
1401;BME280;46518;48.842;8.926;2023-03-01T10:30:44;97535.06;;;3.89;57.77
1401;BME280;46518;48.842;8.926;2023-03-01T10:33:17;97527.84;;;3.92;57.88
1401;BME280;46518;48.842;8.926;2023-03-01T10:35:50;97516.69;;;3.98;57.55
1401;BME280;46518;48.842;8.926;2023-03-01T10:38:18;97543.22;;;4.21;57.70
1401;BME280;46518;48.842;8.926;2023-03-01T10:40:53;97537.22;;;4.21;57.30
1401;BME280;46518;48.842;8.926;2023-03-01T10:43:24;97535.22;;;4.23;56.40
1401;BME280;46518;48.842;8.926;2023-03-01T10:45:53;97538.59;;;4.17;56.75
1401;BME280;46518;48.842;8.926;2023-03-01T10:48:23;97530.06;;;4.29;56.97
1401;BME280;46518;48.842;8.926;2023-03-01T10:51:06;97536.50;;;4.40;56.80
1401;BME280;46518;48.842;8.926;2023-03-01T10:53:37;97528.28;;;4.43;56.53
1401;BME280;46518;48.842;8.926;2023-03-01T10:56:08;97523.31;;;4.62;56.39
1401;BME280;46518;48.842;8.926;2023-03-01T10:58:37;97523.31;;;4.55;55.18
1401;BME280;46518;48.842;8.926;2023-03-01T11:01:25;97516.28;;;4.56;54.98
1401;BME280;46518;48.842;8.926;2023-03-01T11:04:10;97516.94;;;4.64;55.23
1401;BME280;46518;48.842;8.926;2023-03-01T11:06:40;97516.53;;;4.81;55.36
1401;BME280;46518;48.842;8.926;2023-03-01T11:09:18;97506.91;;;4.81;55.50
1401;BME280;46518;48.842;8.926;2023-03-01T11:11:51;97498.47;;;4.79;54.70
1401;BME280;46518;48.842;8.926;2023-03-01T11:14:21;97491.69;;;4.85;54.08
1401;BME280;46518;48.842;8.926;2023-03-01T11:17:03;97491.09;;;4.89;53.94
1401;BME280;46518;48.842;8.926;2023-03-01T11:19:32;97480.84;;;5.01;53.84
1401;BME280;46518;48.842;8.926;2023-03-01T11:22:07;97479.47;;;5.12;53.82
1401;BME280;46518;48.842;8.926;2023-03-01T11:24:41;97483.69;;;5.00;53.90
1401;BME280;46518;48.842;8.926;2023-03-01T11:27:20;97472.25;;;5.07;54.27
1401;BME280;46518;48.842;8.926;2023-03-01T11:29:52;97472.41;;;5.19;53.59
1401;BME280;46518;48.842;8.926;2023-03-01T11:32:25;97476.03;;;5.11;53.75
1401;BME280;46518;48.842;8.926;2023-03-01T11:34:57;97467.41;;;5.31;53.28
1401;BME280;46518;48.842;8.926;2023-03-01T11:37:34;97453.31;;;5.38;52.93
1401;BME280;46518;48.842;8.926;2023-03-01T11:40:12;97458.97;;;5.42;52.40
1401;BME280;46518;48.842;8.926;2023-03-01T11:42:48;97461.16;;;5.52;52.01
1401;BME280;46518;48.842;8.926;2023-03-01T11:45:21;97448.25;;;5.70;52.09
1401;BME280;46518;48.842;8.926;2023-03-01T11:48:17;97446.19;;;5.79;52.01
1401;BME280;46518;48.842;8.926;2023-03-01T11:50:50;97438.75;;;5.82;51.87
1401;BME280;46518;48.842;8.926;2023-03-01T11:53:31;97451.34;;;6.05;51.02
1401;BME280;46518;48.842;8.926;2023-03-01T11:56:14;97442.88;;;6.17;51.13
1401;BME280;46518;48.842;8.926;2023-03-01T11:58:53;97434.00;;;6.24;50.54
1401;BME280;46518;48.842;8.926;2023-03-01T12:01:32;97428.84;;;6.43;50.14
1401;BME280;46518;48.842;8.926;2023-03-01T12:04:54;97427.25;;;6.42;49.73
1401;BME280;46518;48.842;8.926;2023-03-01T12:07:36;97429.44;;;6.45;50.09
1401;BME280;46518;48.842;8.926;2023-03-01T12:10:22;97415.16;;;6.47;49.48
1401;BME280;46518;48.842;8.926;2023-03-01T12:13:07;97406.09;;;6.75;49.63
1401;BME280;46518;48.842;8.926;2023-03-01T12:15:49;97391.75;;;6.84;49.64
1401;BME280;46518;48.842;8.926;2023-03-01T12:18:34;97389.16;;;7.03;49.06
1401;BME280;46518;48.842;8.926;2023-03-01T12:21:11;97380.09;;;7.05;48.71
1401;BME280;46518;48.842;8.926;2023-03-01T12:24:02;97385.91;;;7.07;48.30
1401;BME280;46518;48.842;8.926;2023-03-01T12:26:35;97379.59;;;7.15;47.71
1401;BME280;46518;48.842;8.926;2023-03-01T12:32:16;97369.75;;;7.10;47.75
1401;BME280;46518;48.842;8.926;2023-03-01T12:35:07;97365.31;;;7.11;47.47
1401;BME280;46518;48.842;8.926;2023-03-01T12:37:50;97352.53;;;7.21;48.08
1401;BME280;46518;48.842;8.926;2023-03-01T12:40:31;97348.53;;;7.19;47.60
1401;BME280;46518;48.842;8.926;2023-03-01T12:43:10;97348.38;;;7.13;47.43
1401;BME280;46518;48.842;8.926;2023-03-01T12:45:57;97347.25;;;7.09;47.99
1401;BME280;46518;48.842;8.926;2023-03-01T12:48:40;97350.69;;;7.03;47.63
1401;BME280;46518;48.842;8.926;2023-03-01T12:51:14;97343.97;;;7.14;47.86
1401;BME280;46518;48.842;8.926;2023-03-01T12:53:45;97331.09;;;7.31;47.33
1401;BME280;46518;48.842;8.926;2023-03-01T12:56:17;97331.66;;;7.33;47.71
1401;BME280;46518;48.842;8.926;2023-03-01T12:58:54;97330.13;;;7.44;47.50
1401;BME280;46518;48.842;8.926;2023-03-01T13:01:33;97329.56;;;7.42;47.21
1401;BME280;46518;48.842;8.926;2023-03-01T13:04:12;97320.09;;;7.59;46.88
1401;BME280;46518;48.842;8.926;2023-03-01T13:06:50;97317.69;;;7.57;46.87
1401;BME280;46518;48.842;8.926;2023-03-01T13:09:29;97323.13;;;7.56;47.17
1401;BME280;46518;48.842;8.926;2023-03-01T13:12:00;97319.66;;;7.62;46.79
1401;BME280;46518;48.842;8.926;2023-03-01T13:14:44;97313.88;;;7.72;46.41
1401;BME280;46518;48.842;8.926;2023-03-01T13:17:33;97313.66;;;7.73;47.04
1401;BME280;46518;48.842;8.926;2023-03-01T13:20:16;97315.28;;;7.56;47.00
1401;BME280;46518;48.842;8.926;2023-03-01T13:22:46;97310.03;;;7.56;47.11
1401;BME280;46518;48.842;8.926;2023-03-01T13:25:20;97300.78;;;7.42;47.33
1401;BME280;46518;48.842;8.926;2023-03-01T13:34:47;97305.34;;;7.46;47.63
1401;BME280;46518;48.842;8.926;2023-03-01T13:37:35;97300.50;;;7.31;47.72
1401;BME280;46518;48.842;8.926;2023-03-01T13:43:30;97301.91;;;7.46;47.98
1401;BME280;46518;48.842;8.926;2023-03-01T13:45:59;97298.13;;;7.60;47.33
1401;BME280;46518;48.842;8.926;2023-03-01T13:48:30;97303.81;;;7.57;48.21
1401;BME280;46518;48.842;8.926;2023-03-01T13:50:59;97305.63;;;7.56;47.93
1401;BME280;46518;48.842;8.926;2023-03-01T13:53:31;97300.28;;;7.63;47.47
1401;BME280;46518;48.842;8.926;2023-03-01T13:56:02;97301.31;;;7.62;47.56
1401;BME280;46518;48.842;8.926;2023-03-01T13:58:32;97295.41;;;7.67;47.84
1401;BME280;46518;48.842;8.926;2023-03-01T14:01:04;97294.88;;;7.76;47.19
1401;BME280;46518;48.842;8.926;2023-03-01T14:03:41;97296.22;;;7.67;47.86
1401;BME280;46518;48.842;8.926;2023-03-01T14:06:13;97296.78;;;7.69;47.94
1401;BME280;46518;48.842;8.926;2023-03-01T14:08:49;97297.38;;;7.71;47.68